Lugoff, South Carolina
Current Conditions -  °F | °C
As of 3:55 PM on Saturday 25 Oct 2014 (Local Time) from KCDN Reporting Station
Clear Clear  
Wind Chill: 73°   Ceiling: Unl
Heat Index: 73°   Visibility: 10mi
Dew Point: 36°   Wind: 7mph
Humidity: 25%   Direction: 260°W
Pressure: 29.96"   Gusts: NA
Location:  34.22°N, 80.67°W
Report Text: KCDN 251955Z AUTO 26006KT 10SM CLR 23/02 A2996 RMK AO2 TSNO
Loading
Personal Weather Stations






























Interactive Weather Map
Tropical Storm Tracking
New forecast layout! Learn more

10-Day Weather Forecast

Advertisements
Track Severe Weather on mobile